createdAt,value
2022-12-01T00:02:01.542Z,68.68
2022-12-01T00:04:33.141Z,69.17
2022-12-01T00:07:04.947Z,69.75
2022-12-01T00:09:36.438Z,69.98
2022-12-01T00:12:07.949Z,69.49
2022-12-01T00:14:39.498Z,70.20
2022-12-01T00:17:11.006Z,70.93
2022-12-01T00:19:42.554Z,70.40
2022-12-01T00:22:14.022Z,70.83
2022-12-01T00:24:46.731Z,71.19
2022-12-01T00:27:18.296Z,70.69
2022-12-01T00:29:50.069Z,71.63
2022-12-01T00:32:21.858Z,70.96
2022-12-01T00:34:53.427Z,70.72
2022-12-01T00:37:24.977Z,70.98
2022-12-01T00:39:57.187Z,71.06
2022-12-01T00:42:28.687Z,70.60
2022-12-01T00:45:00.244Z,71.25
2022-12-01T00:47:31.793Z,71.62
2022-12-01T00:50:03.966Z,71.58
2022-12-01T00:52:35.593Z,71.00
2022-12-01T00:55:07.669Z,70.94
2022-12-01T00:57:39.209Z,71.44
2022-12-01T01:00:11.399Z,71.54
2022-12-01T01:02:44.257Z,71.56
2022-12-01T01:05:15.869Z,71.44
2022-12-01T01:07:47.470Z,71.22
2022-12-01T01:10:19.007Z,71.23
2022-12-01T01:12:50.548Z,71.41
2022-12-01T01:15:23.751Z,70.71
2022-12-01T01:17:55.267Z,71.47
2022-12-01T01:20:26.981Z,70.90
2022-12-01T01:22:58.595Z,71.10
2022-12-01T01:25:32.125Z,70.57
2022-12-01T01:28:03.808Z,70.89
2022-12-01T01:30:38.920Z,70.67
2022-12-01T01:33:10.529Z,70.37
2022-12-01T01:35:42.061Z,70.27
2022-12-01T01:38:13.971Z,70.09
2022-12-01T01:40:47.562Z,69.28
2022-12-01T01:43:47.068Z,69.05
2022-12-01T01:46:30.816Z,68.84
2022-12-01T01:49:13.072Z,69.64
2022-12-01T01:51:53.755Z,69.75
2022-12-01T01:54:33.526Z,69.27
2022-12-01T01:57:09.764Z,69.54
2022-12-01T01:59:47.755Z,69.87
2022-12-01T02:02:19.602Z,69.25
2022-12-01T02:05:01.558Z,69.26
2022-12-01T02:07:33.330Z,69.50
2022-12-01T02:10:08.525Z,69.96
2022-12-01T02:13:01.369Z,69.32
2022-12-01T02:16:11.201Z,70.11
2022-12-01T02:18:48.485Z,69.87
2022-12-01T02:21:29.436Z,70.55
2022-12-01T02:24:04.013Z,70.07
2022-12-01T02:27:02.494Z,70.53
2022-12-01T02:29:39.837Z,70.09
2022-12-01T02:32:29.764Z,69.60
2022-12-01T02:35:27.217Z,69.95
2022-12-01T02:38:28.400Z,69.71
2022-12-01T02:41:02.715Z,69.59
2022-12-01T02:43:53.663Z,69.45
2022-12-01T02:46:34.014Z,69.09
2022-12-01T02:49:32.137Z,68.40
2022-12-01T02:52:06.630Z,68.59
2022-12-01T02:54:39.014Z,68.36
2022-12-01T02:57:15.041Z,67.61
2022-12-01T02:59:52.077Z,67.71
2022-12-01T03:02:26.640Z,67.79
2022-12-01T03:05:20.921Z,67.26
2022-12-01T03:08:26.795Z,67.67
2022-12-01T03:11:01.234Z,67.21
2022-12-01T03:13:54.047Z,67.28
2022-12-01T03:17:04.264Z,67.22
2022-12-01T03:19:44.163Z,66.66
2022-12-01T03:22:26.471Z,67.05
2022-12-01T03:25:02.320Z,67.42
2022-12-01T03:27:41.785Z,66.51
2022-12-01T03:30:24.674Z,67.13
2022-12-01T03:33:03.899Z,65.93
2022-12-01T03:35:56.175Z,65.43
2022-12-01T03:38:30.161Z,64.93
2022-12-01T03:41:17.237Z,65.25
2022-12-01T03:43:59.503Z,66.58
2022-12-01T03:46:57.633Z,65.34
2022-12-01T03:49:30.403Z,65.49
2022-12-01T03:52:53.383Z,65.47
2022-12-01T03:55:29.213Z,65.65
2022-12-01T03:58:12.736Z,64.86
2022-12-01T04:00:46.389Z,64.99
2022-12-01T04:03:20.496Z,65.12
2022-12-01T04:05:52.242Z,65.48
2022-12-01T04:08:24.152Z,65.14
2022-12-01T04:10:55.699Z,65.39
2022-12-01T04:13:27.798Z,65.01
2022-12-01T04:15:59.455Z,65.65
2022-12-01T04:18:31.252Z,65.17
2022-12-01T04:21:02.799Z,64.30
2022-12-01T04:23:34.343Z,64.88
2022-12-01T04:26:07.338Z,65.32
2022-12-01T04:28:41.610Z,65.26
2022-12-01T04:31:13.191Z,64.53
2022-12-01T04:33:44.752Z,64.93
2022-12-01T04:36:16.321Z,64.74
2022-12-01T04:38:47.920Z,65.23
2022-12-01T04:41:19.850Z,65.34
2022-12-01T04:43:55.300Z,65.41
2022-12-01T04:46:26.961Z,63.94
2022-12-01T04:48:58.501Z,64.19
2022-12-01T04:51:30.075Z,64.28
2022-12-01T04:54:02.902Z,65.16
2022-12-01T04:56:34.417Z,65.25
2022-12-01T04:59:05.913Z,64.21
2022-12-01T05:01:38.609Z,65.39
2022-12-01T05:04:14.607Z,65.03
2022-12-01T05:06:46.131Z,64.59
2022-12-01T05:09:18.061Z,65.23
2022-12-01T05:11:49.637Z,64.54
2022-12-01T05:14:21.140Z,65.06
2022-12-01T05:16:52.831Z,64.65
2022-12-01T05:19:24.398Z,64.20
2022-12-01T05:21:55.911Z,64.48
2022-12-01T05:24:27.480Z,63.34
2022-12-01T05:26:59.018Z,63.46
2022-12-01T05:29:30.580Z,64.54
2022-12-01T05:32:02.204Z,64.31
2022-12-01T05:34:33.786Z,64.82
2022-12-01T05:37:05.421Z,64.83
2022-12-01T05:39:36.953Z,63.49
2022-12-01T05:42:08.481Z,64.02
2022-12-01T05:44:40.027Z,64.42
2022-12-01T05:47:11.556Z,63.91
2022-12-01T05:49:43.087Z,64.72
2022-12-01T05:52:14.724Z,63.97
2022-12-01T05:54:46.254Z,64.28
2022-12-01T05:57:17.805Z,63.53
2022-12-01T05:59:49.448Z,64.24
2022-12-01T06:02:21.270Z,65.36
2022-12-01T06:04:53.521Z,65.11
2022-12-01T06:07:25.191Z,64.89
2022-12-01T06:09:56.722Z,64.60
2022-12-01T06:12:28.655Z,64.42
2022-12-01T06:15:00.170Z,64.84
2022-12-01T06:17:34.635Z,64.49
2022-12-01T06:20:11.044Z,65.20
2022-12-01T06:22:42.801Z,65.55
2022-12-01T06:25:14.289Z,65.37
2022-12-01T06:27:45.886Z,64.76
2022-12-01T06:30:17.594Z,65.25
2022-12-01T06:32:49.108Z,65.54
2022-12-01T06:35:20.638Z,65.21
2022-12-01T06:37:53.553Z,64.85
2022-12-01T06:40:25.043Z,65.18
2022-12-01T06:43:00.587Z,65.74
2022-12-01T06:45:32.532Z,65.67
2022-12-01T06:48:04.289Z,65.16
2022-12-01T06:50:35.865Z,65.28
2022-12-01T06:53:07.451Z,65.00
2022-12-01T06:55:39.420Z,63.44
2022-12-01T06:58:11.084Z,64.37
2022-12-01T07:00:46.376Z,65.73
2022-12-01T07:03:20.500Z,65.46
2022-12-01T07:05:59.841Z,65.69
2022-12-01T07:08:32.212Z,66.21
2022-12-01T07:11:07.516Z,66.13
2022-12-01T07:13:40.476Z,65.59
2022-12-01T07:16:12.760Z,65.22
2022-12-01T07:18:44.379Z,65.61
2022-12-01T07:21:16.816Z,65.59
2022-12-01T07:23:48.368Z,65.02
2022-12-01T07:26:19.841Z,65.03
2022-12-01T07:28:52.906Z,65.14
2022-12-01T07:31:24.480Z,65.19
2022-12-01T07:33:56.048Z,64.75
2022-12-01T07:36:27.672Z,64.63
2022-12-01T07:38:59.203Z,65.80
2022-12-01T07:41:30.737Z,66.17
2022-12-01T07:44:02.977Z,66.13
2022-12-01T07:46:34.642Z,65.89
2022-12-01T07:49:08.050Z,66.14
2022-12-01T07:51:39.582Z,65.02
2022-12-01T07:54:11.595Z,65.80
2022-12-01T07:56:43.146Z,65.47
2022-12-01T07:59:14.633Z,65.47
2022-12-01T08:01:46.212Z,65.14
2022-12-01T08:04:17.755Z,64.83
2022-12-01T08:06:49.283Z,65.37
2022-12-01T08:09:20.785Z,65.02
2022-12-01T08:11:52.303Z,65.07
2022-12-01T08:14:23.868Z,64.26
2022-12-01T08:16:55.365Z,63.65
2022-12-01T08:19:26.861Z,64.59
2022-12-01T08:21:58.433Z,64.49
2022-12-01T08:24:29.968Z,64.80
2022-12-01T08:27:01.485Z,64.12
2022-12-01T08:29:32.989Z,64.15
2022-12-01T08:32:04.655Z,63.89
2022-12-01T08:34:36.359Z,63.61
2022-12-01T08:37:08.301Z,64.09
2022-12-01T08:39:39.868Z,64.02
2022-12-01T08:42:11.523Z,64.44
2022-12-01T08:44:43.166Z,64.74
2022-12-01T08:47:18.693Z,63.99
2022-12-01T08:49:50.726Z,58.89
2022-12-01T08:52:22.456Z,60.49
2022-12-01T08:54:53.971Z,62.74
2022-12-01T08:57:25.627Z,63.64
2022-12-01T08:59:57.817Z,62.96
2022-12-01T09:02:29.458Z,62.91
2022-12-01T09:05:01.082Z,63.24
2022-12-01T09:07:33.246Z,63.79
2022-12-01T09:10:05.612Z,62.42
2022-12-01T09:12:37.149Z,63.20
2022-12-01T09:15:09.402Z,62.25
2022-12-01T09:17:40.930Z,62.41
2022-12-01T09:20:12.831Z,61.86
2022-12-01T09:22:44.350Z,62.24
2022-12-01T09:25:15.916Z,61.30
2022-12-01T09:27:47.407Z,62.05
2022-12-01T09:30:19.036Z,63.01
2022-12-01T09:32:50.554Z,62.26
2022-12-01T09:35:23.608Z,62.64
2022-12-01T09:37:55.271Z,61.93
2022-12-01T09:40:33.978Z,60.41
2022-12-01T09:43:27.619Z,60.93
2022-12-01T09:46:05.875Z,61.43
2022-12-01T09:48:46.625Z,60.73
2022-12-01T09:51:26.135Z,60.94
2022-12-01T09:54:00.910Z,61.32
2022-12-01T09:56:42.484Z,61.50
2022-12-01T09:59:26.406Z,61.26
2022-12-01T10:02:02.727Z,62.23
2022-12-01T10:04:39.774Z,61.59
2022-12-01T10:07:20.441Z,61.87
2022-12-01T10:10:01.375Z,61.88
2022-12-01T10:12:35.432Z,60.86
2022-12-01T10:15:13.101Z,60.50
2022-12-01T10:18:22.415Z,60.61
2022-12-01T10:21:31.267Z,61.29
2022-12-01T10:24:09.626Z,60.76
2022-12-01T10:26:59.151Z,59.27
2022-12-01T10:29:48.731Z,59.96
2022-12-01T10:32:29.067Z,59.05
2022-12-01T10:35:00.820Z,59.19
2022-12-01T10:37:32.756Z,59.51
2022-12-01T10:40:04.915Z,58.90
2022-12-01T10:42:44.146Z,59.15
2022-12-01T10:45:18.631Z,58.70
2022-12-01T10:48:08.448Z,57.43
2022-12-01T10:50:40.097Z,58.86
2022-12-01T10:53:33.440Z,58.47
2022-12-01T10:56:12.892Z,57.37
2022-12-01T10:58:52.365Z,58.55
2022-12-01T11:01:27.786Z,59.15
2022-12-01T11:04:34.475Z,58.46
2022-12-01T11:07:06.259Z,57.43
2022-12-01T11:09:37.858Z,56.91
2022-12-01T11:12:17.761Z,57.97
2022-12-01T11:14:56.324Z,58.37
2022-12-01T11:17:58.421Z,57.88
2022-12-01T11:20:38.975Z,58.38
2022-12-01T11:23:19.617Z,57.30
2022-12-01T11:26:03.050Z,57.70
2022-12-01T11:28:36.463Z,57.14
2022-12-01T11:31:10.686Z,58.14
2022-12-01T11:33:55.061Z,57.82
2022-12-01T11:36:31.703Z,58.80
2022-12-01T11:39:04.907Z,58.29
2022-12-01T11:41:40.961Z,58.83
2022-12-01T11:44:49.791Z,56.58
2022-12-01T11:47:23.697Z,58.29
2022-12-01T11:50:00.057Z,56.94
2022-12-01T11:52:46.306Z,57.71
2022-12-01T11:55:24.470Z,57.69
2022-12-01T11:58:04.216Z,57.37
2022-12-01T12:00:50.469Z,57.03
2022-12-01T12:03:39.151Z,57.30
2022-12-01T12:09:34.481Z,57.34
2022-12-01T12:12:40.067Z,57.55
2022-12-01T12:18:56.431Z,57.62
2022-12-01T12:21:38.660Z,57.28
2022-12-01T12:24:35.236Z,57.21
2022-12-01T12:27:09.980Z,57.23
2022-12-01T12:29:41.481Z,57.77
2022-12-01T12:32:25.284Z,58.56
2022-12-01T12:35:25.962Z,56.59
2022-12-01T12:38:19.276Z,55.77
2022-12-01T12:41:06.420Z,56.78
2022-12-01T12:43:48.317Z,58.21
2022-12-01T12:46:41.857Z,57.09
2022-12-01T12:49:29.730Z,55.91
2022-12-01T12:52:16.115Z,58.35
2022-12-01T12:54:58.745Z,56.04
2022-12-01T12:57:37.921Z,56.37
2022-12-01T13:00:17.087Z,56.38
2022-12-01T13:02:56.321Z,56.00
2022-12-01T13:05:33.630Z,56.96
2022-12-01T13:08:19.463Z,55.16
2022-12-01T13:11:10.024Z,55.43
2022-12-01T13:13:53.792Z,57.76
2022-12-01T13:16:35.831Z,57.63
2022-12-01T13:19:28.848Z,56.54
2022-12-01T13:22:02.083Z,56.20
2022-12-01T13:24:34.127Z,56.91
2022-12-01T13:27:17.059Z,55.78
2022-12-01T13:29:52.594Z,57.17
2022-12-01T13:32:35.786Z,56.33
2022-12-01T13:35:27.086Z,56.86
2022-12-01T13:38:17.529Z,56.88
2022-12-01T13:40:50.080Z,57.56
2022-12-01T13:43:23.301Z,57.19
2022-12-01T13:46:03.204Z,56.61
2022-12-01T13:48:37.741Z,56.94
2022-12-01T13:51:09.393Z,57.21
2022-12-01T13:54:04.364Z,58.59
2022-12-01T13:56:46.796Z,57.57
2022-12-01T13:59:41.816Z,58.76
2022-12-01T14:02:21.121Z,57.16
2022-12-01T14:04:52.848Z,58.43
2022-12-01T14:07:34.872Z,58.53
2022-12-01T14:10:24.171Z,57.34
2022-12-01T14:13:01.612Z,59.26
2022-12-01T14:15:38.191Z,59.25
2022-12-01T14:18:29.919Z,58.21
2022-12-01T14:21:06.038Z,59.30
2022-12-01T14:24:01.035Z,59.75
2022-12-01T14:26:44.930Z,57.60
2022-12-01T14:29:32.622Z,58.57
2022-12-01T14:32:10.246Z,59.48
2022-12-01T14:34:43.188Z,58.80
2022-12-01T14:37:20.224Z,59.17
2022-12-01T14:40:11.297Z,59.35
2022-12-01T14:42:52.184Z,60.12
2022-12-01T14:45:38.482Z,58.89
2022-12-01T14:48:18.520Z,59.84
2022-12-01T14:50:58.502Z,59.22
2022-12-01T14:53:41.751Z,58.58
2022-12-01T14:56:19.273Z,60.08
2022-12-01T14:58:58.682Z,59.79
2022-12-01T15:01:35.356Z,59.69
2022-12-01T15:04:07.169Z,60.66
2022-12-01T15:06:38.984Z,59.83
2022-12-01T15:09:36.836Z,59.98
2022-12-01T15:12:27.152Z,60.72
2022-12-01T15:14:58.801Z,60.77
2022-12-01T15:17:33.673Z,61.29
2022-12-01T15:20:35.702Z,61.53
2022-12-01T15:23:16.474Z,61.31
2022-12-01T15:25:48.020Z,61.26
2022-12-01T15:28:28.644Z,60.80
2022-12-01T15:31:09.390Z,62.30
2022-12-01T15:33:51.910Z,61.23
2022-12-01T15:36:24.924Z,60.48
2022-12-01T15:39:00.985Z,61.45
2022-12-01T15:41:41.327Z,61.96
2022-12-01T15:44:34.261Z,62.66
2022-12-01T15:47:43.078Z,62.89
2022-12-01T15:50:26.826Z,61.95
2022-12-01T15:53:02.496Z,61.91
2022-12-01T15:55:37.977Z,61.18
2022-12-01T15:58:27.089Z,61.65
2022-12-01T16:01:07.156Z,60.59
2022-12-01T16:03:56.597Z,62.43
2022-12-01T16:06:33.461Z,62.62
2022-12-01T16:09:23.713Z,62.55
2022-12-01T16:12:14.287Z,61.28
2022-12-01T16:15:00.630Z,61.47
2022-12-01T16:17:53.163Z,62.02
2022-12-01T16:20:26.693Z,61.31
2022-12-01T16:23:09.637Z,63.07
2022-12-01T16:25:45.505Z,62.24
2022-12-01T16:28:23.921Z,62.44
2022-12-01T16:30:55.634Z,61.40
2022-12-01T16:33:29.023Z,60.61
2022-12-01T16:36:01.110Z,60.49
2022-12-01T16:38:32.678Z,61.22
2022-12-01T16:41:23.759Z,63.23
2022-12-01T16:44:26.596Z,62.72
2022-12-01T16:49:19.073Z,62.78
2022-12-01T16:51:56.051Z,62.25
2022-12-01T16:54:28.473Z,62.50
2022-12-01T16:57:00.128Z,60.86
2022-12-01T16:59:32.104Z,62.04
2022-12-01T17:02:03.705Z,62.92
2022-12-01T17:04:35.284Z,63.13
2022-12-01T17:07:06.822Z,62.28
2022-12-01T17:09:38.369Z,62.91
2022-12-01T17:12:09.872Z,62.03
2022-12-01T17:14:41.363Z,62.32
2022-12-01T17:17:12.949Z,61.97
2022-12-01T17:19:44.503Z,61.94
2022-12-01T17:22:16.020Z,61.89
2022-12-01T17:24:47.777Z,63.03
2022-12-01T17:27:19.430Z,62.84
2022-12-01T17:29:51.098Z,62.24
2022-12-01T17:32:22.607Z,62.33
2022-12-01T17:34:54.540Z,62.98
2022-12-01T17:37:26.324Z,62.75
2022-12-01T17:39:57.906Z,62.50
2022-12-01T17:42:34.501Z,61.96
2022-12-01T17:45:15.658Z,63.37
2022-12-01T17:47:47.413Z,62.98
2022-12-01T17:50:18.981Z,62.29
2022-12-01T17:52:50.503Z,62.69
2022-12-01T17:55:21.997Z,64.66
2022-12-01T17:57:53.531Z,64.45
2022-12-01T18:00:25.795Z,63.92
2022-12-01T18:02:57.447Z,63.79
2022-12-01T18:05:29.086Z,63.39
2022-12-01T18:08:00.779Z,63.27
2022-12-01T18:10:32.471Z,63.89
2022-12-01T18:13:03.989Z,64.86
2022-12-01T18:15:35.535Z,65.13
2022-12-01T18:18:07.109Z,65.24
2022-12-01T18:20:42.929Z,65.83
2022-12-01T18:23:14.503Z,66.18
2022-12-01T18:25:46.026Z,64.98
2022-12-01T18:28:17.540Z,64.76
2022-12-01T18:30:49.102Z,66.53
2022-12-01T18:33:20.648Z,66.29
2022-12-01T18:35:52.186Z,66.64
2022-12-01T18:38:23.716Z,68.10
2022-12-01T18:40:59.916Z,68.34
2022-12-01T18:43:32.595Z,67.36
2022-12-01T18:46:06.236Z,67.15
2022-12-01T18:48:38.022Z,67.55
2022-12-01T18:51:10.772Z,67.43
2022-12-01T18:53:42.870Z,66.25
2022-12-01T18:56:15.510Z,66.17
2022-12-01T18:58:47.186Z,67.86
2022-12-01T19:01:32.542Z,67.77
2022-12-01T19:04:06.229Z,68.08
2022-12-01T19:06:40.166Z,68.30
2022-12-01T19:09:14.255Z,67.83
2022-12-01T19:11:46.700Z,68.20
2022-12-01T19:14:18.849Z,67.28
2022-12-01T19:16:50.915Z,66.74
2022-12-01T19:19:23.140Z,66.21
2022-12-01T19:21:54.724Z,66.57
2022-12-01T19:24:26.343Z,67.87
2022-12-01T19:26:57.886Z,67.21
2022-12-01T19:29:29.370Z,66.68
2022-12-01T19:32:01.066Z,67.41
2022-12-01T19:34:32.748Z,66.27
2022-12-01T19:37:06.056Z,66.45
2022-12-01T19:39:38.219Z,66.50
2022-12-01T19:42:09.733Z,66.82
2022-12-01T19:44:41.354Z,66.46
2022-12-01T19:47:14.683Z,66.36
2022-12-01T19:49:49.260Z,65.60
2022-12-01T19:52:20.788Z,67.11
2022-12-01T19:54:53.109Z,66.41
2022-12-01T19:57:24.800Z,66.09
2022-12-01T19:59:56.306Z,67.19
2022-12-01T20:02:29.511Z,65.58
2022-12-01T20:05:01.204Z,65.92
2022-12-01T20:07:32.783Z,66.24
2022-12-01T20:10:05.116Z,67.14
2022-12-01T20:12:36.655Z,66.44
2022-12-01T20:15:08.725Z,66.20
2022-12-01T20:17:40.468Z,66.84
2022-12-01T20:20:12.441Z,65.85
2022-12-01T20:22:44.218Z,65.22
2022-12-01T20:25:15.896Z,65.79
2022-12-01T20:27:47.442Z,65.30
2022-12-01T20:30:19.052Z,65.11
2022-12-01T20:32:50.557Z,64.52
2022-12-01T20:35:22.122Z,65.12
2022-12-01T20:37:53.717Z,65.16
2022-12-01T20:40:25.418Z,66.16
2022-12-01T20:42:56.918Z,65.61
2022-12-01T20:45:28.657Z,66.42
2022-12-01T20:48:00.186Z,67.53
2022-12-01T20:50:32.461Z,67.24
2022-12-01T20:53:04.108Z,67.06
2022-12-01T20:55:36.655Z,67.69
2022-12-01T20:58:08.633Z,68.38
2022-12-01T21:00:42.513Z,67.28
2022-12-01T21:03:14.718Z,66.67
2022-12-01T21:05:46.240Z,68.19
2022-12-01T21:08:17.792Z,69.03
2022-12-01T21:10:49.345Z,67.97
2022-12-01T21:13:24.100Z,66.77
2022-12-01T21:16:01.881Z,68.58
2022-12-01T21:18:42.045Z,67.74
2022-12-01T21:21:25.751Z,68.37
2022-12-01T21:24:12.820Z,68.94
2022-12-01T21:27:14.787Z,69.27
2022-12-01T21:29:49.568Z,69.29
2022-12-01T21:32:31.163Z,68.51
2022-12-01T21:35:29.170Z,68.47
2022-12-01T21:38:06.994Z,69.25
2022-12-01T21:40:42.240Z,68.69
2022-12-01T21:43:24.924Z,68.24
2022-12-01T21:46:10.180Z,69.28
2022-12-01T21:48:42.841Z,68.35
2022-12-01T21:51:14.346Z,67.83
2022-12-01T21:53:47.288Z,66.46
2022-12-01T21:56:27.266Z,67.31
2022-12-01T21:59:10.863Z,67.04
2022-12-01T22:01:42.520Z,67.49
2022-12-01T22:04:28.809Z,66.43
2022-12-01T22:07:00.395Z,66.82
2022-12-01T22:09:35.265Z,66.33
2022-12-01T22:12:26.031Z,66.15
2022-12-01T22:15:01.477Z,66.13
2022-12-01T22:17:33.007Z,66.03
2022-12-01T22:20:21.453Z,67.34
2022-12-01T22:22:53.020Z,67.02
2022-12-01T22:25:26.839Z,66.84
2022-12-01T22:27:58.743Z,67.10
2022-12-01T22:30:30.235Z,66.44
2022-12-01T22:33:05.141Z,67.33
2022-12-01T22:35:48.380Z,66.70
2022-12-01T22:38:25.028Z,66.61
2022-12-01T22:41:02.627Z,66.84
2022-12-01T22:43:57.166Z,65.24
2022-12-01T22:46:37.960Z,66.35
2022-12-01T22:49:23.086Z,66.75
2022-12-01T22:52:00.260Z,66.91
2022-12-01T22:54:37.374Z,67.58
2022-12-01T22:57:26.173Z,66.17
2022-12-01T23:00:01.521Z,66.41
2022-12-01T23:02:34.961Z,65.70
2022-12-01T23:05:25.565Z,65.88
2022-12-01T23:07:57.666Z,67.57
2022-12-01T23:10:33.627Z,66.35
2022-12-01T23:13:19.595Z,66.25
2022-12-01T23:15:53.143Z,65.89
2022-12-01T23:18:29.137Z,66.41
2022-12-01T23:21:02.046Z,66.20
2022-12-01T23:23:36.830Z,66.05
2022-12-01T23:26:08.948Z,66.09
2022-12-01T23:28:40.520Z,66.47
2022-12-01T23:31:12.117Z,67.49
2022-12-01T23:33:43.795Z,66.67
2022-12-01T23:36:16.611Z,65.83
2022-12-01T23:38:52.743Z,66.08
2022-12-01T23:41:41.719Z,65.73
2022-12-01T23:44:21.104Z,65.92
2022-12-01T23:46:56.501Z,65.80
2022-12-01T23:49:33.039Z,66.25
2022-12-01T23:52:13.319Z,65.56
2022-12-01T23:54:45.037Z,67.12
2022-12-01T23:57:23.468Z,65.99
2022-12-01T23:59:59.708Z,67.18
